Time;durP1;ratioP1;P1;durP2;ratioP2;P2;SDS_P1;SDS_P2;PMS_P1;PMS_P2;Temp;Humidity;BMP_temperature;BMP_pressure;BME280_temperature;BME280_humidity;BME280_pressure;Samples;Min_cycle;Max_cycle;Signal;HPM_P1;HPM_P2
2022/05/05 00:02:50;;;;;;;0.00;0.00;;;;;;;2.59;100.00;101968.59;10487911;28;20035;-89
2022/05/05 00:07:50;;;;;;;0.10;0.10;;;;;;;2.54;100.00;101974.13;10496621;28;20108;-90
2022/05/05 00:18:10;;;;;;;0.00;0.00;;;;;;;2.32;100.00;101969.09;10496971;28;20476;-90
2022/05/05 00:23:10;;;;;;;0.10;0.10;;;;;;;2.20;100.00;101975.81;10495629;28;20404;-89
2022/05/05 00:28:10;;;;;;;0.00;0.00;;;;;;;2.06;100.00;101962.50;10495120;28;20025;-90
2022/05/05 00:33:10;;;;;;;0.08;0.08;;;;;;;2.00;100.00;101963.66;10486273;28;20028;-90
2022/05/05 00:38:11;;;;;;;0.10;0.10;;;;;;;1.93;100.00;101964.91;10494199;28;20016;-90
2022/05/05 00:43:11;;;;;;;0.10;0.10;;;;;;;1.87;100.00;101956.50;10494686;28;20012;-90
2022/05/05 00:48:16;;;;;;;0.10;0.10;;;;;;;1.86;100.00;101962.66;10496424;28;20028;-90
2022/05/05 00:53:16;;;;;;;0.10;0.10;;;;;;;1.78;100.00;101965.66;10495276;28;20458;-89
2022/05/05 00:58:17;;;;;;;0.20;0.20;;;;;;;1.69;100.00;101963.50;10495120;28;20105;-90
2022/05/05 01:03:18;;;;;;;0.00;0.00;;;;;;;1.68;100.00;101969.66;10486255;28;20443;-90
2022/05/05 01:08:19;;;;;;;0.10;0.10;;;;;;;1.63;100.00;101982.16;10491569;28;20098;-91
2022/05/05 01:13:19;;;;;;;0.00;0.00;;;;;;;1.58;100.00;101985.00;10488273;28;20023;-90
2022/05/05 01:18:20;;;;;;;0.10;0.10;;;;;;;1.51;100.00;101978.31;10494486;28;20020;-89
2022/05/05 01:23:21;;;;;;;0.10;0.10;;;;;;;1.33;100.00;101965.13;10493541;28;20104;-90
2022/05/05 01:28:21;;;;;;;0.10;0.10;;;;;;;1.39;100.00;101973.66;10494665;28;20016;-90
2022/05/05 01:33:24;;;;;;;0.10;0.10;;;;;;;1.38;100.00;101987.72;10484821;28;20028;-90
2022/05/05 01:38:26;;;;;;;0.10;0.10;;;;;;;1.27;100.00;101996.09;10493859;28;20591;-90
2022/05/05 01:43:26;;;;;;;0.10;0.10;;;;;;;1.24;100.00;101996.22;10495086;28;20436;-90
2022/05/05 01:48:28;;;;;;;0.10;0.10;;;;;;;1.15;100.00;102005.38;10499875;28;20111;-90
2022/05/05 01:53:36;;;;;;;0.00;0.00;;;;;;;1.02;100.00;101991.09;10498937;28;20029;-89
2022/05/05 01:58:38;;;;;;;0.10;0.10;;;;;;;0.95;100.00;102003.63;10500990;28;20024;-89
2022/05/05 02:03:39;;;;;;;0.10;0.10;;;;;;;0.84;100.00;102009.38;10492039;28;20302;-90
2022/05/05 02:08:39;;;;;;;0.10;0.10;;;;;;;0.81;100.00;102003.38;10501577;28;20059;-90
2022/05/05 02:13:39;;;;;;;0.20;0.20;;;;;;;0.85;100.00;102007.59;10500201;28;20591;-87
2022/05/05 02:18:39;;;;;;;0.10;0.10;;;;;;;0.79;100.00;102006.09;10499317;28;20632;-89
2022/05/05 02:23:40;;;;;;;0.10;0.10;;;;;;;0.77;100.00;102013.16;10501058;28;20028;-88
2022/05/05 02:28:40;;;;;;;0.10;0.10;;;;;;;0.82;100.00;102015.59;10500762;28;20392;-88
2022/05/05 02:33:41;;;;;;;0.10;0.10;;;;;;;0.82;100.00;102015.59;10490256;28;20262;-88
2022/05/05 02:38:44;;;;;;;0.10;0.10;;;;;;;0.74;100.00;102004.59;10499148;28;20017;-89
2022/05/05 02:43:44;;;;;;;0.20;0.20;;;;;;;0.68;100.00;102005.72;10498560;28;20400;-87
2022/05/05 02:48:45;;;;;;;0.10;0.10;;;;;;;0.64;100.00;102010.25;10499933;28;20301;-89
2022/05/05 02:59:04;;;;;;;0.20;0.20;;;;;;;0.57;100.00;102011.41;10496255;28;20283;-89
2022/05/05 03:04:04;;;;;;;0.10;0.10;;;;;;;0.58;100.00;102009.63;10490638;28;20016;-89
2022/05/05 03:09:05;;;;;;;0.20;0.20;;;;;;;0.62;100.00;102013.84;10498304;28;20082;-90
2022/05/05 03:14:05;;;;;;;0.10;0.10;;;;;;;0.47;100.00;102014.47;10498603;28;20058;-89
2022/05/05 03:19:05;;;;;;;0.20;0.20;;;;;;;0.37;100.00;101999.13;10500373;28;20037;-89
2022/05/05 03:24:06;;;;;;;0.20;0.20;;;;;;;0.48;100.00;102021.44;10499178;28;20020;-89
2022/05/05 03:29:06;;;;;;;0.10;0.10;;;;;;;0.44;100.00;102023.34;10497154;28;20051;-87
2022/05/05 03:34:07;;;;;;;0.10;0.10;;;;;;;0.48;100.00;102024.91;10490324;28;20028;-90
2022/05/05 03:39:07;;;;;;;0.10;0.10;;;;;;;0.45;100.00;102025.88;10497351;28;20271;-88
2022/05/05 03:44:07;;;;;;;0.10;0.10;;;;;;;0.43;100.00;102011.13;10500334;28;20094;-85
2022/05/05 03:49:08;;;;;;;0.10;0.10;;;;;;;0.68;100.00;102026.69;10505292;28;20020;-85
2022/05/05 03:54:08;;;;;;;0.20;0.20;;;;;;;1.22;100.00;102046.19;10503619;28;20028;-84
2022/05/05 03:59:08;;;;;;;0.15;0.15;;;;;;;1.82;100.00;102046.03;10497056;28;20033;-85
2022/05/05 04:04:09;;;;;;;0.10;0.10;;;;;;;2.69;100.00;102052.25;10455301;28;20025;-86
2022/05/05 04:09:10;;;;;;;0.10;0.10;;;;;;;3.51;100.00;102066.41;10462762;28;20104;-86
2022/05/05 04:14:10;;;;;;;0.10;0.10;;;;;;;4.34;100.00;102044.16;10462592;28;20275;-83
2022/05/05 04:19:10;;;;;;;0.00;0.00;;;;;;;5.42;100.00;102063.16;10462974;28;20528;-83
2022/05/05 04:24:11;;;;;;;0.00;0.00;;;;;;;6.38;100.00;102059.75;10477923;28;20064;-83
2022/05/05 04:29:12;;;;;;;0.00;0.00;;;;;;;6.99;100.00;102077.63;10462691;28;20316;-83
2022/05/05 04:34:12;;;;;;;0.00;0.00;;;;;;;6.63;100.00;102077.47;10453190;28;20026;-84
2022/05/05 04:39:12;;;;;;;0.00;0.00;;;;;;;6.53;100.00;102079.91;10462977;28;20025;-86
2022/05/05 04:44:13;;;;;;;0.00;0.00;;;;;;;6.90;100.00;102091.50;10480361;28;20025;-85
2022/05/05 04:49:13;;;;;;;0.00;0.00;;;;;;;6.89;100.00;102081.00;10462320;28;20021;-85
2022/05/05 04:54:13;;;;;;;0.00;0.00;;;;;;;7.14;100.00;102086.31;10460708;28;20059;-85
2022/05/05 04:59:14;;;;;;;0.00;0.00;;;;;;;8.30;100.00;102095.72;10461000;28;20029;-86
2022/05/05 05:04:14;;;;;;;0.00;0.00;;;;;;;10.05;96.64;102094.63;10454655;28;20701;-87
2022/05/05 05:09:14;;;;;;;0.10;0.10;;;;;;;11.15;89.36;102096.09;10461701;28;20507;-86
2022/05/05 05:14:14;;;;;;;0.10;0.10;;;;;;;12.12;85.24;102106.31;10461882;28;20400;-86
2022/05/05 05:19:15;;;;;;;0.00;0.00;;;;;;;13.36;82.14;102111.72;10461550;28;20029;-86
2022/05/05 05:24:15;;;;;;;0.10;0.10;;;;;;;14.31;77.56;102115.03;10460935;28;20029;-83
2022/05/05 05:29:15;;;;;;;0.10;0.10;;;;;;;15.14;77.42;102112.06;10460565;28;20024;-84
2022/05/05 05:34:16;;;;;;;0.10;0.10;;;;;;;15.57;73.58;102112.97;10455780;28;20464;-85
2022/05/05 05:39:17;;;;;;;0.10;0.10;;;;;;;16.28;70.59;102122.47;10461782;28;20535;-85
2022/05/05 05:44:17;;;;;;;0.10;0.10;;;;;;;17.04;63.74;102117.81;10461909;28;20085;-84
2022/05/05 05:49:18;;;;;;;0.10;0.10;;;;;;;16.95;62.12;102133.97;10477628;28;20107;-85
2022/05/05 05:54:19;;;;;;;0.03;0.03;;;;;;;17.22;60.51;102131.06;10476997;28;20021;-86
2022/05/05 05:59:19;;;;;;;0.00;0.00;;;;;;;16.61;59.26;102138.63;10459477;28;20021;-86
2022/05/05 06:04:20;;;;;;;0.10;0.10;;;;;;;16.37;62.53;102136.75;10454088;28;20029;-85
2022/05/05 06:09:20;;;;;;;0.00;0.00;;;;;;;17.25;60.08;102141.50;10460714;28;20119;-85
2022/05/05 06:14:20;;;;;;;0.00;0.00;;;;;;;17.50;55.70;102144.97;10460524;28;20493;-86
2022/05/05 06:19:21;;;;;;;0.08;0.08;;;;;;;17.38;54.56;102141.81;10460491;28;20033;-86
2022/05/05 06:24:21;;;;;;;0.10;0.10;;;;;;;17.23;55.97;102149.75;10459751;28;20040;-86
2022/05/05 06:29:21;;;;;;;0.00;0.00;;;;;;;17.46;55.66;102149.88;10458364;28;20097;-87
2022/05/05 06:34:22;;;;;;;0.00;0.00;;;;;;;17.92;54.07;102160.88;10456904;28;20032;-86
2022/05/05 06:39:22;;;;;;;0.00;0.00;;;;;;;18.63;50.71;102158.94;10465104;28;20260;-86
2022/05/05 06:44:22;;;;;;;0.10;0.10;;;;;;;19.12;47.53;102166.66;10465214;28;20044;-86
2022/05/05 06:49:23;;;;;;;0.10;0.10;;;;;;;19.55;45.70;102158.78;10464282;28;20079;-86
2022/05/05 06:54:23;;;;;;;0.10;0.10;;;;;;;19.98;43.15;102164.38;10480103;28;20623;-87
2022/05/05 06:59:24;;;;;;;0.10;0.10;;;;;;;20.12;43.62;102168.91;10459902;28;20021;-85
2022/05/05 07:15:06;;;;;;;0.00;0.00;;;;;;;20.02;42.83;102172.97;10462641;28;20029;-87
2022/05/05 07:20:08;;;;;;;0.00;0.00;;;;;;;20.07;43.87;102173.22;10460496;28;20031;-87
2022/05/05 07:25:08;;;;;;;0.10;0.10;;;;;;;19.44;42.21;102184.41;10460400;28;20029;-86
2022/05/05 07:30:09;;;;;;;0.10;0.10;;;;;;;19.55;44.99;102179.59;10453599;28;20552;-86
2022/05/05 07:35:13;;;;;;;0.00;0.00;;;;;;;19.37;43.32;102188.88;10460680;28;20096;-86
2022/05/05 07:40:13;;;;;;;0.00;0.00;;;;;;;19.06;44.61;102185.47;10459996;28;20024;-86
2022/05/05 07:45:13;;;;;;;0.10;0.10;;;;;;;18.70;47.34;102183.34;10461301;28;20028;-86
2022/05/05 07:50:14;;;;;;;0.00;0.00;;;;;;;18.77;47.21;102192.44;10461789;28;20047;-86
2022/05/05 07:55:14;;;;;;;0.00;0.00;;;;;;;19.05;45.77;102190.00;10460827;28;20021;-86
2022/05/05 08:00:15;;;;;;;0.00;0.00;;;;;;;19.06;43.24;102193.56;10453677;28;20033;-84
2022/05/05 08:05:17;;;;;;;0.10;0.10;;;;;;;19.57;44.60;102196.44;10460057;28;20497;-85
2022/05/05 08:10:18;;;;;;;0.00;0.00;;;;;;;19.76;44.82;102203.19;10460537;28;20021;-85
2022/05/05 08:15:18;;;;;;;0.00;0.00;;;;;;;19.83;43.84;102196.00;10460826;28;20032;-85
2022/05/05 08:20:19;;;;;;;0.00;0.00;;;;;;;19.47;44.94;102202.13;10475938;28;20059;-85
2022/05/05 08:30:38;;;;;;;0.10;0.10;;;;;;;18.15;47.48;102208.59;10452930;28;20033;-84
2022/05/05 08:35:41;;;;;;;0.10;0.10;;;;;;;17.81;48.51;102209.78;10460592;28;20021;-85
2022/05/05 08:40:41;;;;;;;0.10;0.10;;;;;;;17.41;51.14;102214.19;10462973;28;20342;-85
2022/05/05 08:45:43;;;;;;;0.10;0.10;;;;;;;16.91;51.07;102217.91;10460711;28;20563;-85
2022/05/05 08:50:46;;;;;;;0.03;0.03;;;;;;;17.36;49.32;102217.38;10462160;28;20029;-85
2022/05/05 08:55:46;;;;;;;;;;;;;;;17.75;49.41;102207.75;10462019;28;20031;-85
2022/05/05 09:00:47;;;;;;;0.10;0.10;;;;;;;16.85;49.00;102223.97;10458261;28;19913;-85
2022/05/05 09:05:50;;;;;;;0.10;0.10;;;;;;;17.05;50.35;102221.81;10462129;28;20032;-85
2022/05/05 09:10:52;;;;;;;0.10;0.10;;;;;;;17.50;48.10;102223.09;10460341;28;20107;-85
2022/05/05 09:15:53;;;;;;;0.10;0.10;;;;;;;17.22;48.23;102223.47;10463291;28;20021;-86
2022/05/05 09:20:53;;;;;;;0.10;0.10;;;;;;;16.99;48.25;102223.31;10459888;28;20436;-85
2022/05/05 09:25:54;;;;;;;0.10;0.10;;;;;;;16.71;47.42;102215.50;10459407;28;20056;-86
2022/05/05 09:30:54;;;;;;;0.00;0.00;;;;;;;16.94;48.04;102226.50;10454051;28;20025;-85
2022/05/05 09:35:56;;;;;;;0.10;0.10;;;;;;;17.42;45.25;102227.50;10459426;28;20040;-86
2022/05/05 09:41:03;;;;;;;0.10;0.10;;;;;;;17.87;43.97;102230.63;10459428;28;20437;-86
2022/05/05 09:46:23;;;;;;;0.00;0.00;;;;;;;18.05;41.72;102225.84;10458548;28;20025;-84
2022/05/05 09:51:23;;;;;;;0.10;0.10;;;;;;;16.88;45.41;102232.53;10458910;28;20032;-87
2022/05/05 10:01:50;;;;;;;0.10;0.10;;;;;;;17.29;46.13;102245.19;10450758;28;20025;-86
2022/05/05 10:06:52;;;;;;;0.10;0.10;;;;;;;16.84;49.69;102247.34;10459829;28;20435;-86
2022/05/05 10:11:53;;;;;;;0.10;0.10;;;;;;;16.58;49.89;102223.22;10482527;28;20098;-86
2022/05/05 10:16:55;;;;;;;0.10;0.10;;;;;;;16.77;48.79;102230.19;10464877;28;20027;-87
2022/05/05 10:22:18;;;;;;;0.00;0.00;;;;;;;16.80;52.21;102242.47;10466140;28;20041;-86
2022/05/05 10:27:18;;;;;;;0.10;0.10;;;;;;;16.31;53.45;102237.75;10463107;28;20459;-86
2022/05/05 10:32:20;;;;;;;0.10;0.10;;;;;;;16.39;51.27;102237.78;10456848;28;20041;-87
2022/05/05 10:37:31;;;;;;;0.10;0.10;;;;;;;16.93;53.36;102237.44;10463855;28;20740;-87
2022/05/05 10:42:33;;;;;;;0.10;0.10;;;;;;;17.06;53.13;102237.78;10465141;28;20035;-87
2022/05/05 10:47:52;;;;;;;0.10;0.10;;;;;;;17.30;51.20;102246.84;10462401;28;20051;-86
2022/05/05 10:52:53;;;;;;;0.10;0.10;;;;;;;17.41;49.01;102239.28;10463726;28;20391;-86
2022/05/05 10:57:53;;;;;;;0.10;0.10;;;;;;;17.53;52.20;102242.44;10456637;28;20109;-84
2022/05/05 11:03:03;;;;;;;0.13;0.13;;;;;;;17.29;48.88;102247.88;10459743;28;20075;-84
2022/05/05 11:08:15;;;;;;;0.10;0.10;;;;;;;17.56;52.96;102242.13;10458789;28;20043;-86
2022/05/05 11:13:35;;;;;;;0.00;0.00;;;;;;;17.40;49.96;102236.75;10460760;28;20035;-87
2022/05/05 11:21:31;;;;;;;0.10;0.10;;;;;;;17.63;52.68;102237.75;10459823;28;20025;-86
2022/05/05 11:24:27;;;;;;;0.10;0.10;;;;;;;17.58;51.32;102245.47;10463774;28;20025;-87
2022/05/05 11:29:30;;;;;;;0.10;0.10;;;;;;;17.47;53.85;102245.00;10471085;28;20025;-86
2022/05/05 11:34:33;;;;;;;0.10;0.10;;;;;;;17.35;54.86;102247.19;10463517;28;20076;-87
2022/05/05 11:39:34;;;;;;;0.10;0.10;;;;;;;17.16;53.72;102251.06;10461858;28;20036;-85
2022/05/05 11:44:36;;;;;;;0.10;0.10;;;;;;;17.27;54.79;102252.59;10462952;28;20035;-84
2022/05/05 11:49:37;;;;;;;0.10;0.10;;;;;;;17.33;55.09;102258.13;10462619;28;20129;-85
2022/05/05 11:54:38;;;;;;;0.10;0.10;;;;;;;17.53;53.92;102253.22;10463495;28;20039;-84
2022/05/05 12:04:58;;;;;;;0.10;0.10;;;;;;;16.83;56.22;102240.28;10465026;28;20028;-85
2022/05/05 12:09:59;;;;;;;0.10;0.10;;;;;;;16.95;57.46;102252.38;10464866;28;20083;-86
2022/05/05 12:15:01;;;;;;;0.10;0.10;;;;;;;17.07;55.45;102250.22;10464001;28;20374;-86
2022/05/05 12:20:05;;;;;;;0.10;0.10;;;;;;;17.23;56.57;102253.94;10463342;28;20033;-85
2022/05/05 12:25:15;;;;;;;0.10;0.10;;;;;;;17.15;56.65;102254.78;10463564;28;20021;-85
2022/05/05 12:30:33;;;;;;;0.10;0.10;;;;;;;17.59;57.04;102255.25;10453409;28;20028;-83
2022/05/05 12:35:35;;;;;;;0.10;0.10;;;;;;;17.50;54.66;102260.81;10462044;28;20021;-85
2022/05/05 12:40:37;;;;;;;0.00;0.00;;;;;;;17.60;55.36;102251.56;10459537;28;20503;-86
2022/05/05 12:45:37;;;;;;;0.10;0.10;;;;;;;17.55;54.71;102262.00;10458022;28;20064;-85
2022/05/05 12:50:40;;;;;;;0.10;0.10;;;;;;;17.69;54.50;102256.94;10460354;28;20047;-86
2022/05/05 13:01:00;;;;;;;0.00;0.00;;;;;;;17.57;53.18;102254.59;10451694;28;20291;-87
2022/05/05 13:06:01;;;;;;;0.10;0.10;;;;;;;17.80;53.47;102248.50;10458849;28;20052;-86
2022/05/05 13:11:01;;;;;;;0.10;0.10;;;;;;;17.77;53.76;102252.38;10475997;28;20052;-87
2022/05/05 13:16:01;;;;;;;0.10;0.10;;;;;;;17.70;55.24;102253.22;10461577;28;20077;-86
2022/05/05 13:21:02;;;;;;;0.10;0.10;;;;;;;17.66;54.76;102255.41;10461091;28;20048;-86
2022/05/05 13:26:04;;;;;;;0.10;0.10;;;;;;;17.63;54.99;102259.28;10460704;28;20118;-86
2022/05/05 13:31:04;;;;;;;0.10;0.10;;;;;;;17.26;55.90;102251.75;10453716;28;20056;-87
2022/05/05 13:36:05;;;;;;;0.10;0.10;;;;;;;17.45;55.86;102253.22;10458239;28;20021;-86
2022/05/05 13:41:05;;;;;;;0.10;0.10;;;;;;;17.65;56.27;102245.63;10461189;28;20021;-85
2022/05/05 13:46:05;;;;;;;0.00;0.00;;;;;;;17.79;57.30;102260.28;10459618;28;20100;-84
2022/05/05 13:51:06;;;;;;;0.10;0.10;;;;;;;18.08;54.89;102270.50;10459969;28;20396;-86
2022/05/05 13:56:06;;;;;;;0.10;0.10;;;;;;;17.79;56.87;102271.06;10459607;28;20271;-86
2022/05/05 14:01:06;;;;;;;0.10;0.10;;;;;;;17.67;58.21;102267.03;10454661;28;20020;-86
2022/05/05 14:06:08;;;;;;;0.10;0.10;;;;;;;17.53;59.97;102268.56;10460447;28;20277;-86
2022/05/05 14:16:27;;;;;;;0.10;0.10;;;;;;;17.25;60.92;102262.66;10460397;28;20432;-86
2022/05/05 14:21:27;;;;;;;0.10;0.10;;;;;;;17.00;61.12;102261.84;10474923;28;20032;-87
2022/05/05 14:26:28;;;;;;;0.10;0.10;;;;;;;16.58;62.74;102262.72;10459296;28;20055;-87
2022/05/05 14:31:28;;;;;;;0.00;0.00;;;;;;;16.11;64.48;102266.72;10466481;28;20025;-87
2022/05/05 14:36:29;;;;;;;0.20;0.20;;;;;;;16.25;64.86;102259.91;10460576;28;20469;-87
2022/05/05 14:41:30;;;;;;;0.10;0.10;;;;;;;16.34;63.21;102258.09;10459382;28;20511;-87
2022/05/05 14:46:31;;;;;;;0.10;0.10;;;;;;;16.50;63.17;102258.16;10457484;28;20021;-87
2022/05/05 14:51:31;;;;;;;0.10;0.10;;;;;;;16.59;61.62;102250.97;10458453;28;20507;-86
2022/05/05 14:56:32;;;;;;;0.10;0.10;;;;;;;16.69;60.46;102252.47;10464222;28;20021;-87
2022/05/05 15:01:33;;;;;;;0.10;0.10;;;;;;;16.67;59.74;102261.75;10455760;28;20021;-86
2022/05/05 15:06:33;;;;;;;0.10;0.10;;;;;;;16.63;60.68;102258.53;10465185;28;20094;-86
2022/05/05 15:11:38;;;;;;;0.10;0.10;;;;;;;16.57;60.35;102272.63;10465927;28;20025;-86
2022/05/05 15:16:38;;;;;;;0.10;0.10;;;;;;;16.59;61.04;102254.50;10466367;28;20116;-86
2022/05/05 15:21:39;;;;;;;0.10;0.10;;;;;;;16.56;59.80;102257.50;10480810;28;20044;-87
2022/05/05 15:26:39;;;;;;;0.10;0.10;;;;;;;16.55;59.22;102263.91;10460263;28;20029;-91
2022/05/05 15:31:39;;;;;;;0.10;0.10;;;;;;;16.55;59.48;102263.91;10459624;28;20029;-86
2022/05/05 15:36:42;;;;;;;0.10;0.10;;;;;;;16.32;60.16;102263.66;10472624;28;20024;-86
2022/05/05 15:41:43;;;;;;;0.10;0.10;;;;;;;16.10;59.93;102259.69;10463461;28;20088;-85
2022/05/05 15:46:43;;;;;;;0.10;0.10;;;;;;;16.10;60.32;102261.53;10464662;28;20049;-86
2022/05/05 15:51:43;;;;;;;0.10;0.10;;;;;;;16.09;61.35;102274.13;10463792;28;20032;-85
2022/05/05 15:56:43;;;;;;;0.10;0.10;;;;;;;16.06;61.41;102264.53;10480937;28;20060;-86
2022/05/05 16:01:45;;;;;;;0.10;0.10;;;;;;;15.82;60.36;102267.06;10461258;28;20028;-89
2022/05/05 16:06:45;;;;;;;0.10;0.10;;;;;;;15.77;61.43;102272.94;10447535;28;20027;-90
2022/05/05 16:11:45;;;;;;;0.10;0.10;;;;;;;15.57;61.64;102252.63;10455630;28;20124;-89
2022/05/05 16:16:46;;;;;;;0.10;0.10;;;;;;;15.53;62.54;102268.22;10459546;28;20104;-86
2022/05/05 16:21:46;;;;;;;0.10;0.10;;;;;;;15.43;62.34;102258.56;10465453;28;20259;-86
2022/05/05 16:32:19;;;;;;;0.20;0.20;;;;;;;15.32;62.93;102279.28;10486042;28;20793;-63
2022/05/05 16:37:19;;;;;;;0.10;0.10;;;;;;;15.21;63.04;102276.81;10517883;28;20032;-64
2022/05/05 16:42:19;;;;;;;0.10;0.10;;;;;;;15.02;62.83;102268.94;10526252;28;20259;-64
2022/05/05 16:47:20;;;;;;;0.10;0.10;;;;;;;14.93;64.00;102279.59;10521844;28;20028;-63
2022/05/05 16:52:20;;;;;;;0.10;0.10;;;;;;;14.79;64.56;102280.13;10488787;28;20354;-63
2022/05/05 16:57:20;;;;;;;0.10;0.10;;;;;;;14.67;65.79;102284.84;10483534;28;20083;-62
2022/05/05 17:02:21;;;;;;;0.10;0.10;;;;;;;14.55;66.48;102285.22;10485021;28;20017;-62
2022/05/05 17:07:25;;;;;;;0.10;0.10;;;;;;;14.46;66.25;102278.88;10454247;28;20055;-63
2022/05/05 17:12:26;;;;;;;0.10;0.10;;;;;;;14.36;67.78;102283.44;10480810;28;20032;-62
2022/05/05 17:17:27;;;;;;;0.10;0.10;;;;;;;14.28;68.55;102286.84;10483025;28;20021;-63
2022/05/05 17:22:27;;;;;;;0.10;0.10;;;;;;;14.18;69.79;102283.38;10482454;28;20368;-63
2022/05/05 17:27:29;;;;;;;0.10;0.10;;;;;;;14.09;70.42;102289.63;10465437;28;20104;-63
2022/05/05 17:32:31;;;;;;;0.10;0.10;;;;;;;13.98;70.80;102299.50;10441725;28;20547;-63
2022/05/05 17:37:32;;;;;;;0.10;0.10;;;;;;;13.87;70.99;102296.16;10446646;28;20045;-63
2022/05/05 17:42:32;;;;;;;0.10;0.10;;;;;;;13.76;70.98;102302.56;10420077;28;20061;-63
2022/05/05 17:52:51;;;;;;;0.10;0.10;;;;;;;13.45;73.99;102310.75;10453745;28;20476;-63
2022/05/05 17:57:51;;;;;;;0.10;0.10;;;;;;;13.35;76.56;102315.25;10452926;28;20017;-63
2022/05/05 18:02:52;;;;;;;0.10;0.10;;;;;;;13.25;77.22;102314.38;10448582;28;20055;-63
2022/05/05 18:07:53;;;;;;;0.10;0.10;;;;;;;13.17;78.41;102320.41;10421532;28;20022;-63
2022/05/05 18:12:55;;;;;;;0.10;0.10;;;;;;;13.02;79.47;102322.66;10441769;28;20025;-63
2022/05/05 18:17:56;;;;;;;0.10;0.10;;;;;;;12.93;79.33;102320.81;10452265;28;20384;-62
2022/05/05 18:22:56;;;;;;;0.10;0.10;;;;;;;12.77;81.01;102316.03;10453024;28;20032;-62
2022/05/05 18:27:58;;;;;;;0.10;0.10;;;;;;;12.64;82.18;102326.94;10437374;28;20392;-63
2022/05/05 18:32:58;;;;;;;0.10;0.10;;;;;;;12.51;84.00;102331.69;10412486;28;20025;-63
2022/05/05 18:37:58;;;;;;;0.10;0.10;;;;;;;12.40;85.52;102332.63;10412262;28;20017;-62
2022/05/05 18:42:59;;;;;;;0.10;0.10;;;;;;;12.28;86.73;102339.06;10411465;28;20423;-62
2022/05/05 18:47:59;;;;;;;0.10;0.10;;;;;;;12.17;87.92;102342.66;10410756;28;20021;-63
2022/05/05 18:53:00;;;;;;;0.10;0.10;;;;;;;12.07;88.64;102347.09;10419540;28;20049;-62
2022/05/05 18:58:00;;;;;;;0.10;0.10;;;;;;;11.92;89.94;102343.06;10445193;28;20017;-62
2022/05/05 19:03:01;;;;;;;0.00;0.00;;;;;;;11.76;90.11;102341.66;10413559;28;20017;-62
2022/05/05 19:08:01;;;;;;;0.10;0.10;;;;;;;11.58;91.03;102351.22;10413138;28;20017;-62
2022/05/05 19:13:02;;;;;;;0.10;0.10;;;;;;;11.41;91.86;102351.78;10410039;28;20385;-63
2022/05/05 19:18:03;;;;;;;0.10;0.10;;;;;;;11.24;92.22;102354.00;10409022;28;20445;-63
2022/05/05 19:23:03;;;;;;;0.00;0.00;;;;;;;11.05;92.78;102354.69;10410137;28;20053;-62
2022/05/05 19:28:05;;;;;;;0.10;0.10;;;;;;;10.97;92.89;102366.94;10408561;28;20057;-62
2022/05/05 19:33:05;;;;;;;0.00;0.00;;;;;;;10.82;93.38;102361.88;10410086;28;20056;-62
2022/05/05 19:38:06;;;;;;;0.10;0.10;;;;;;;10.69;93.71;102371.81;10411287;28;20021;-62
2022/05/05 19:43:06;;;;;;;0.10;0.10;;;;;;;10.58;95.86;102380.66;10411710;28;20024;-62
2022/05/05 19:48:25;;;;;;;0.10;0.10;;;;;;;10.46;96.35;102391.44;10437697;28;20063;-62
2022/05/05 19:53:44;;;;;;;0.10;0.10;;;;;;;10.33;97.35;102388.91;10449385;28;20496;-62
2022/05/05 20:04:04;;;;;;;0.00;0.00;;;;;;;10.04;98.22;102388.44;10442986;28;20025;-62
2022/05/05 20:09:05;;;;;;;0.00;0.00;;;;;;;9.89;99.40;102393.97;10409888;28;20014;-62
2022/05/05 20:14:06;;;;;;;0.00;0.00;;;;;;;9.74;99.29;102395.97;10407587;28;20024;-62
2022/05/05 20:19:06;;;;;;;0.00;0.00;;;;;;;9.61;100.00;102392.53;10408089;28;20540;-62
2022/05/05 20:24:09;;;;;;;0.00;0.00;;;;;;;9.46;100.00;102391.88;10412188;28;20032;-62
2022/05/05 20:29:10;;;;;;;0.00;0.00;;;;;;;9.32;100.00;102394.69;10408097;28;20428;-62
2022/05/05 20:34:10;;;;;;;0.00;0.00;;;;;;;9.16;100.00;102402.94;10410473;28;20372;-62
2022/05/05 20:39:11;;;;;;;0.00;0.00;;;;;;;9.01;100.00;102407.53;10409612;28;20018;-62
2022/05/05 20:44:12;;;;;;;0.00;0.00;;;;;;;8.90;100.00;102415.47;10406915;28;20029;-62
2022/05/05 20:49:16;;;;;;;0.00;0.00;;;;;;;8.84;100.00;102415.88;10406767;28;20025;-61
2022/05/05 20:54:16;;;;;;;0.00;0.00;;;;;;;8.80;100.00;102415.25;10406784;28;20485;-62
2022/05/05 20:59:17;;;;;;;0.00;0.00;;;;;;;8.71;100.00;102415.06;10407783;28;20088;-62
2022/05/05 21:04:18;;;;;;;0.00;0.00;;;;;;;8.66;100.00;102418.03;10431801;28;20029;-60
2022/05/05 21:09:18;;;;;;;0.08;0.08;;;;;;;8.62;100.00;102413.91;10408070;28;20014;-62
2022/05/05 21:14:19;;;;;;;0.00;0.00;;;;;;;8.50;100.00;102417.41;10405935;28;20075;-62
2022/05/05 21:19:19;;;;;;;0.00;0.00;;;;;;;8.43;100.00;102416.13;10414380;28;20025;-62
2022/05/05 21:29:38;;;;;;;0.00;0.00;;;;;;;8.39;100.00;102412.84;10452354;28;20037;-61
2022/05/05 21:34:38;;;;;;;0.00;0.00;;;;;;;8.36;100.00;102423.63;10443484;28;20396;-61
2022/05/05 21:39:38;;;;;;;0.00;0.00;;;;;;;8.34;100.00;102428.19;10417985;28;20167;-60
2022/05/05 21:44:39;;;;;;;0.00;0.00;;;;;;;8.32;100.00;102427.44;10426342;28;20159;-62
2022/05/05 21:49:39;;;;;;;0.00;0.00;;;;;;;8.25;100.00;102428.81;10425560;28;20066;-61
2022/05/05 21:54:40;;;;;;;0.00;0.00;;;;;;;8.20;100.00;102430.94;10442675;28;20024;-61
2022/05/05 21:59:40;;;;;;;0.00;0.00;;;;;;;8.21;100.00;102427.34;10454573;28;20255;-62
2022/05/05 22:04:40;;;;;;;0.00;0.00;;;;;;;8.24;100.00;102419.19;10453021;28;20361;-60
2022/05/05 22:09:41;;;;;;;0.00;0.00;;;;;;;8.20;100.00;102425.63;10438271;28;20026;-61
2022/05/05 22:14:41;;;;;;;0.00;0.00;;;;;;;8.02;100.00;102423.28;10414399;28;20079;-62
2022/05/05 22:19:41;;;;;;;0.00;0.00;;;;;;;7.76;100.00;102419.72;10412587;28;20453;-62
2022/05/05 22:24:41;;;;;;;0.00;0.00;;;;;;;7.57;100.00;102422.75;10411781;28;20457;-61
2022/05/05 22:29:42;;;;;;;0.00;0.00;;;;;;;7.42;100.00;102419.28;10442991;28;20457;-62
2022/05/05 22:34:42;;;;;;;0.00;0.00;;;;;;;7.34;100.00;102421.59;10452940;28;20106;-62
2022/05/05 22:39:42;;;;;;;0.00;0.00;;;;;;;7.34;100.00;102416.28;10439874;28;20025;-62
2022/05/05 22:44:43;;;;;;;0.00;0.00;;;;;;;7.10;100.00;102424.00;10416006;28;20021;-62
2022/05/05 22:55:03;;;;;;;0.00;0.00;;;;;;;6.72;100.00;102442.28;10450565;28;20029;-61
2022/05/05 23:00:04;;;;;;;0.00;0.00;;;;;;;6.71;100.00;102444.09;10452478;28;20017;-61
2022/05/05 23:05:05;;;;;;;0.00;0.00;;;;;;;6.70;100.00;102457.44;10414709;28;20036;-60
2022/05/05 23:10:05;;;;;;;0.00;0.00;;;;;;;6.68;100.00;102449.56;10410450;28;20031;-62
2022/05/05 23:15:08;;;;;;;0.00;0.00;;;;;;;6.75;100.00;102440.31;10413181;28;20120;-61
2022/05/05 23:20:13;;;;;;;0.00;0.00;;;;;;;6.87;100.00;102446.66;10410048;28;20024;-61
2022/05/05 23:25:13;;;;;;;0.00;0.00;;;;;;;6.97;100.00;102454.88;10408879;28;20025;-61
2022/05/05 23:30:13;;;;;;;0.00;0.00;;;;;;;6.92;100.00;102451.63;10409780;28;20034;-61
2022/05/05 23:40:34;;;;;;;0.00;0.00;;;;;;;6.80;100.00;102454.09;10441398;28;20021;-62
2022/05/05 23:45:35;;;;;;;0.00;0.00;;;;;;;6.78;100.00;102445.41;10411874;28;20021;-62
2022/05/05 23:50:35;;;;;;;0.00;0.00;;;;;;;6.81;100.00;102439.09;10407962;28;20538;-62
2022/05/05 23:55:36;;;;;;;0.00;0.00;;;;;;;6.84;100.00;102438.06;10407547;28;20080;-62
